Time;durP1;ratioP1;P1;durP2;ratioP2;P2;SDS_P1;SDS_P2;PMS_P1;PMS_P2;Temp;Humidity;BMP_temperature;BMP_pressure;BME280_temperature;BME280_humidity;BME280_pressure;Samples;Min_cycle;Max_cycle;Signal;HPM_P1;HPM_P2
2022/03/26 00:01:42;;;;;;;50.85;26.27;;;4.40;99.90;;;;;;4897842;29;20059;-84
2022/03/26 00:04:08;;;;;;;49.45;25.77;;;4.40;99.90;;;;;;4896892;29;20060;-84
2022/03/26 00:06:34;;;;;;;54.83;27.20;;;4.30;99.90;;;;;;4896986;29;20116;-84
2022/03/26 00:09:00;;;;;;;48.33;25.83;;;4.30;99.90;;;;;;4897153;29;20411;-84
2022/03/26 00:11:25;;;;;;;53.85;24.83;;;4.30;99.90;;;;;;4897693;29;20381;-85
2022/03/26 00:13:51;;;;;;;52.80;26.08;;;4.30;99.90;;;;;;4896736;29;20056;-84
2022/03/26 00:16:16;;;;;;;57.55;27.85;;;4.20;99.90;;;;;;4896841;29;20056;-84
2022/03/26 00:18:42;;;;;;;54.13;27.15;;;4.20;99.90;;;;;;4896863;29;20048;-84
2022/03/26 00:21:08;;;;;;;55.00;28.58;;;4.20;99.90;;;;;;4896458;29;20044;-85
2022/03/26 00:23:34;;;;;;;57.80;29.27;;;4.20;99.90;;;;;;4899270;29;20407;-85
2022/03/26 00:26:00;;;;;;;49.72;26.08;;;4.20;99.90;;;;;;4916719;29;20064;-84
2022/03/26 00:28:27;;;;;;;59.13;28.55;;;4.20;99.90;;;;;;4899776;29;20410;-84
2022/03/26 00:30:54;;;;;;;54.38;27.98;;;4.20;99.90;;;;;;4899784;29;20056;-85
2022/03/26 00:33:20;;;;;;;64.05;29.45;;;4.20;99.90;;;;;;4899547;29;20491;-84
2022/03/26 00:35:46;;;;;;;62.65;29.50;;;4.20;99.90;;;;;;4899632;29;20420;-84
2022/03/26 00:38:12;;;;;;;62.97;30.42;;;4.20;99.90;;;;;;4916209;29;20521;-84
2022/03/26 00:40:37;;;;;;;62.70;29.52;;;4.10;99.90;;;;;;4899213;29;20131;-84
2022/03/26 00:43:04;;;;;;;58.08;29.67;;;4.10;99.90;;;;;;4899134;29;20136;-85
2022/03/26 00:45:30;;;;;;;61.38;31.55;;;4.10;99.90;;;;;;4916579;29;20406;-84
2022/03/26 00:47:56;;;;;;;63.55;29.67;;;4.10;99.90;;;;;;4916349;29;20406;-84
2022/03/26 00:50:23;;;;;;;58.80;29.75;;;4.00;99.90;;;;;;4899293;29;20127;-84
2022/03/26 00:52:48;;;;;;;59.10;30.33;;;4.00;99.90;;;;;;4916212;29;20063;-84
2022/03/26 00:55:14;;;;;;;66.13;33.15;;;4.00;99.90;;;;;;4898803;29;20498;-85
2022/03/26 00:57:40;;;;;;;62.08;31.95;;;4.00;99.90;;;;;;4916050;29;20048;-85
2022/03/26 01:00:07;;;;;;;69.10;32.78;;;4.00;99.90;;;;;;4917083;29;20059;-84
2022/03/26 01:02:34;;;;;;;69.22;31.75;;;3.90;99.90;;;;;;4919947;29;20048;-84
2022/03/26 01:05:00;;;;;;;66.50;31.92;;;4.00;99.90;;;;;;4903612;29;20044;-84
2022/03/26 01:07:26;;;;;;;63.22;32.20;;;3.90;99.90;;;;;;4903218;29;20127;-84
2022/03/26 01:09:53;;;;;;;63.78;32.75;;;3.90;99.90;;;;;;4903253;29;20101;-84
2022/03/26 01:12:20;;;;;;;68.55;32.35;;;3.90;99.90;;;;;;4887310;29;20052;-84
2022/03/26 01:14:46;;;;;;;69.85;33.63;;;4.00;99.90;;;;;;4902319;29;20063;-84
2022/03/26 01:17:12;;;;;;;69.97;33.92;;;3.80;99.90;;;;;;4903237;29;20131;-84
2022/03/26 01:19:38;;;;;;;65.35;33.08;;;3.80;99.90;;;;;;4902867;29;20542;-84
2022/03/26 01:22:04;;;;;;;65.85;32.95;;;3.70;99.90;;;;;;4887596;29;20052;-84
2022/03/26 01:24:30;;;;;;;77.65;33.85;;;3.70;99.90;;;;;;4902748;29;20127;-84
2022/03/26 01:26:57;;;;;;;67.78;32.72;;;3.70;99.90;;;;;;4919625;29;20135;-83
2022/03/26 01:29:22;;;;;;;68.15;33.35;;;3.70;99.90;;;;;;4919385;29;20060;-84
2022/03/26 01:31:48;;;;;;;64.85;32.65;;;3.60;99.90;;;;;;4902698;29;20490;-84
2022/03/26 01:34:14;;;;;;;70.68;34.03;;;3.60;99.90;;;;;;4919537;29;20138;-84
2022/03/26 01:36:41;;;;;;;67.28;32.85;;;3.60;99.90;;;;;;4919455;29;20048;-85
2022/03/26 01:39:07;;;;;;;71.95;33.50;;;3.50;99.90;;;;;;4919441;29;20051;-84
2022/03/26 01:41:33;;;;;;;65.85;31.08;;;3.50;99.90;;;;;;4902331;29;20058;-85
2022/03/26 01:43:59;;;;;;;67.00;32.15;;;3.50;99.90;;;;;;4902242;29;20515;-84
2022/03/26 01:46:25;;;;;;;66.95;32.72;;;3.50;99.90;;;;;;4902811;29;20080;-84
2022/03/26 01:48:51;;;;;;;69.70;33.30;;;3.50;99.90;;;;;;4902532;29;20092;-84
2022/03/26 01:51:18;;;;;;;74.70;33.67;;;3.50;99.90;;;;;;4886988;29;20074;-86
2022/03/26 01:53:50;;;;;;;68.93;33.92;;;3.40;99.90;;;;;;4902231;29;20518;-84
2022/03/26 01:56:16;;;;;;;79.85;36.78;;;3.40;99.90;;;;;;4918924;29;20044;-84
2022/03/26 01:58:43;;;;;;;73.22;33.75;;;3.40;99.90;;;;;;4902278;29;20088;-84
2022/03/26 02:01:09;;;;;;;73.50;33.95;;;3.30;99.90;;;;;;4902176;29;20123;-84
2022/03/26 02:03:35;;;;;;;72.57;33.60;;;3.30;99.90;;;;;;4901836;29;20511;-83
2022/03/26 02:06:02;;;;;;;73.85;36.42;;;3.30;99.90;;;;;;4886385;29;20502;-85
2022/03/26 02:08:27;;;;;;;76.00;33.78;;;3.30;99.90;;;;;;4902378;29;20443;-83
2022/03/26 02:10:53;;;;;;;75.45;34.90;;;3.20;99.90;;;;;;4901752;29;20088;-84
2022/03/26 02:13:19;;;;;;;78.93;35.97;;;3.20;99.90;;;;;;4917737;29;20521;-84
2022/03/26 02:15:45;;;;;;;81.03;35.47;;;3.30;99.90;;;;;;4902131;29;20375;-84
2022/03/26 02:18:11;;;;;;;80.70;36.83;;;3.30;99.90;;;;;;4902118;29;20059;-84
2022/03/26 02:20:37;;;;;;;78.70;36.50;;;3.20;99.90;;;;;;4901739;29;20442;-84
2022/03/26 02:23:03;;;;;;;74.07;32.63;;;3.10;99.90;;;;;;4901133;29;20068;-84
2022/03/26 02:25:29;;;;;;;72.20;34.25;;;3.10;99.90;;;;;;4918368;29;20414;-84
2022/03/26 02:27:54;;;;;;;76.22;35.30;;;3.10;99.90;;;;;;4901701;29;20063;-84
2022/03/26 02:30:21;;;;;;;80.15;34.95;;;3.10;99.90;;;;;;4918405;29;20048;-84
2022/03/26 02:32:47;;;;;;;76.75;35.10;;;3.10;99.90;;;;;;4886282;29;20074;-84
2022/03/26 02:35:13;;;;;;;80.43;33.85;;;3.00;99.90;;;;;;4918312;29;20405;-84
2022/03/26 02:37:39;;;;;;;73.70;36.05;;;3.10;99.90;;;;;;4918321;29;20044;-84
2022/03/26 02:40:07;;;;;;;81.78;36.22;;;3.00;99.90;;;;;;4901508;29;20084;-84
2022/03/26 02:42:35;;;;;;;80.82;36.80;;;3.00;99.90;;;;;;4901518;29;20083;-84
2022/03/26 02:45:01;;;;;;;80.82;37.03;;;2.90;99.90;;;;;;4901396;29;20056;-84
2022/03/26 02:47:27;;;;;;;79.75;38.30;;;2.90;99.90;;;;;;4917140;29;20044;-84
2022/03/26 02:49:53;;;;;;;88.72;39.13;;;2.90;99.90;;;;;;4901615;29;20052;-84
2022/03/26 02:52:18;;;;;;;84.85;37.45;;;2.80;99.90;;;;;;4918121;29;20095;-84
2022/03/26 02:54:44;;;;;;;88.07;37.88;;;2.80;99.90;;;;;;4918135;29;20059;-84
2022/03/26 02:57:10;;;;;;;91.75;40.78;;;2.70;99.90;;;;;;4901311;29;20072;-84
2022/03/26 02:59:36;;;;;;;81.32;36.40;;;2.70;99.90;;;;;;4917748;29;20534;-84
2022/03/26 03:02:02;;;;;;;88.82;37.78;;;2.70;99.90;;;;;;4901401;29;20043;-84
2022/03/26 03:04:27;;;;;;;87.43;39.15;;;2.70;99.90;;;;;;4917929;29;20040;-84
2022/03/26 03:06:53;;;;;;;85.85;40.53;;;2.70;99.90;;;;;;4901212;29;20455;-84
2022/03/26 03:09:19;;;;;;;84.68;39.63;;;2.80;99.90;;;;;;4917766;29;20066;-84
2022/03/26 03:11:45;;;;;;;91.28;41.53;;;2.70;99.90;;;;;;4885475;29;20052;-84
2022/03/26 03:14:11;;;;;;;97.45;39.92;;;2.70;99.90;;;;;;4917461;29;20127;-84
2022/03/26 03:16:37;;;;;;;100.57;42.17;;;2.60;99.90;;;;;;4917845;29;20143;-84
2022/03/26 03:19:04;;;;;;;96.47;41.90;;;2.60;99.90;;;;;;4917740;29;20048;-84
2022/03/26 03:21:30;;;;;;;96.70;40.83;;;2.60;99.90;;;;;;4900730;29;20048;-84
2022/03/26 03:23:55;;;;;;;89.60;39.53;;;2.60;99.90;;;;;;4900228;29;20576;-84
2022/03/26 03:26:21;;;;;;;97.82;40.95;;;2.50;99.90;;;;;;4917777;29;20071;-84
2022/03/26 03:28:47;;;;;;;96.38;41.45;;;2.50;99.90;;;;;;4900407;29;20052;-84
2022/03/26 03:31:12;;;;;;;100.13;41.20;;;2.50;99.90;;;;;;4900270;29;20188;-84
2022/03/26 03:33:38;;;;;;;88.97;37.55;;;2.50;99.90;;;;;;4900662;29;20052;-84
2022/03/26 03:36:05;;;;;;;90.68;39.08;;;2.50;99.90;;;;;;4917406;29;20048;-84
2022/03/26 03:38:31;;;;;;;90.18;37.55;;;2.40;99.90;;;;;;4917241;29;20119;-84
2022/03/26 03:40:56;;;;;;;92.43;37.10;;;2.40;99.90;;;;;;4884787;29;20171;-84
2022/03/26 03:43:22;;;;;;;89.32;36.78;;;2.40;99.90;;;;;;4917094;29;20103;-84
2022/03/26 03:45:49;;;;;;;93.07;38.38;;;2.40;99.90;;;;;;4916854;29;20048;-83
2022/03/26 03:48:15;;;;;;;92.28;37.83;;;2.40;99.90;;;;;;4917358;29;20056;-84
2022/03/26 03:50:40;;;;;;;86.15;37.45;;;2.40;99.90;;;;;;4917094;29;20048;-83
2022/03/26 03:53:06;;;;;;;99.80;37.63;;;2.30;99.90;;;;;;4900347;29;20052;-84
2022/03/26 03:55:32;;;;;;;84.72;37.33;;;2.30;99.90;;;;;;4916970;29;20486;-84
2022/03/26 03:57:57;;;;;;;93.28;37.70;;;2.30;99.90;;;;;;4917279;29;20056;-84
2022/03/26 04:00:23;;;;;;;97.25;37.47;;;2.20;99.90;;;;;;4884371;29;20139;-84
2022/03/26 04:02:49;;;;;;;88.43;37.42;;;2.20;99.90;;;;;;4900171;29;20099;-84
2022/03/26 04:05:15;;;;;;;82.35;37.63;;;2.20;99.90;;;;;;4884036;29;20427;-84
2022/03/26 04:07:41;;;;;;;90.93;38.83;;;2.20;99.90;;;;;;4916863;29;20550;-84
2022/03/26 04:10:09;;;;;;;106.50;40.83;;;2.20;99.90;;;;;;4916714;29;20036;-84
2022/03/26 04:12:40;;;;;;;92.95;38.45;;;2.20;99.90;;;;;;4899842;29;20056;-84
2022/03/26 04:15:07;;;;;;;92.88;38.92;;;2.20;99.90;;;;;;4899855;29;20117;-84
2022/03/26 04:17:33;;;;;;;83.50;35.90;;;2.20;99.90;;;;;;4899830;29;20064;-84
2022/03/26 04:20:06;;;;;;;85.85;36.22;;;2.10;99.90;;;;;;4916464;29;20051;-84
2022/03/26 04:22:32;;;;;;;86.80;36.38;;;2.10;99.90;;;;;;4899922;29;20044;-84
2022/03/26 04:24:57;;;;;;;87.57;37.17;;;2.10;99.90;;;;;;4916327;29;20059;-83
2022/03/26 04:27:23;;;;;;;92.57;36.97;;;2.10;99.90;;;;;;4883699;29;20048;-83
2022/03/26 04:29:49;;;;;;;75.60;32.83;;;2.00;99.90;;;;;;4899459;29;20094;-83
2022/03/26 04:32:15;;;;;;;91.85;36.38;;;2.00;99.90;;;;;;4883881;29;20509;-85
2022/03/26 04:34:41;;;;;;;85.13;35.05;;;2.00;99.90;;;;;;4899105;29;20395;-84
2022/03/26 04:37:06;;;;;;;89.72;36.78;;;2.10;99.90;;;;;;4883597;29;20068;-84
2022/03/26 04:39:33;;;;;;;90.45;35.67;;;2.10;99.90;;;;;;4899631;29;20052;-84
2022/03/26 04:41:58;;;;;;;96.70;37.35;;;2.10;99.90;;;;;;4884181;29;20044;-84
2022/03/26 04:44:24;;;;;;;97.55;36.60;;;2.10;99.90;;;;;;4884016;29;20418;-84
2022/03/26 04:46:50;;;;;;;88.57;34.83;;;2.00;99.90;;;;;;4898992;29;20056;-84
2022/03/26 04:49:16;;;;;;;96.75;37.38;;;2.00;99.90;;;;;;4899455;29;20051;-84
2022/03/26 04:51:41;;;;;;;97.85;37.40;;;2.00;99.90;;;;;;4883841;29;20495;-83
2022/03/26 04:54:07;;;;;;;95.88;37.85;;;2.10;99.90;;;;;;4899650;29;20111;-84
2022/03/26 04:56:33;;;;;;;94.40;38.35;;;1.90;99.90;;;;;;4899321;29;20130;-84
2022/03/26 04:58:58;;;;;;;101.80;38.85;;;1.90;99.90;;;;;;4915895;29;20474;-85
2022/03/26 05:01:24;;;;;;;98.90;37.95;;;1.80;99.90;;;;;;4899061;29;20383;-84
2022/03/26 05:03:50;;;;;;;98.15;37.65;;;1.80;99.90;;;;;;4915935;29;20139;-83
2022/03/26 05:06:16;;;;;;;96.03;37.90;;;1.80;99.90;;;;;;4898878;29;20052;-84
2022/03/26 05:08:42;;;;;;;106.68;38.42;;;1.80;99.90;;;;;;4883650;29;20495;-85
2022/03/26 05:11:07;;;;;;;101.05;38.65;;;1.80;99.90;;;;;;4898903;29;20055;-83
2022/03/26 05:13:33;;;;;;;98.05;38.05;;;1.70;99.90;;;;;;4899173;29;20052;-84
2022/03/26 05:15:59;;;;;;;95.55;37.35;;;1.80;99.90;;;;;;4898946;29;20052;-84
2022/03/26 05:18:25;;;;;;;108.28;38.67;;;1.80;99.90;;;;;;4898537;29;20060;-84
2022/03/26 05:20:51;;;;;;;88.97;35.65;;;1.90;99.90;;;;;;4915877;29;20052;-84
2022/03/26 05:23:16;;;;;;;89.55;38.30;;;1.90;99.90;;;;;;4899438;29;20521;-84
2022/03/26 05:25:42;;;;;;;91.25;37.33;;;1.90;99.90;;;;;;4898317;29;20135;-84
2022/03/26 05:28:08;;;;;;;90.18;37.40;;;1.90;99.90;;;;;;4915977;29;20084;-84
2022/03/26 05:30:34;;;;;;;99.07;38.78;;;1.90;99.90;;;;;;4915821;29;20135;-84
2022/03/26 05:33:00;;;;;;;95.18;39.35;;;1.80;99.90;;;;;;4915753;29;20487;-84
2022/03/26 05:35:26;;;;;;;101.55;38.65;;;1.80;99.90;;;;;;4899296;29;20067;-84
2022/03/26 05:37:53;;;;;;;96.80;39.20;;;1.80;99.90;;;;;;4899292;29;20056;-85
2022/03/26 05:40:20;;;;;;;93.72;38.05;;;1.80;99.90;;;;;;4883463;29;20103;-84
2022/03/26 05:42:46;;;;;;;97.38;39.88;;;1.90;99.90;;;;;;4883482;29;20087;-84
2022/03/26 05:45:12;;;;;;;97.47;39.75;;;1.90;99.90;;;;;;4915692;29;20135;-84
2022/03/26 05:47:38;;;;;;;106.82;43.20;;;1.90;99.90;;;;;;4918530;29;20539;-84
2022/03/26 05:50:07;;;;;;;112.50;43.47;;;1.90;99.90;;;;;;4902896;29;20044;-84
2022/03/26 05:52:33;;;;;;;104.75;43.03;;;2.00;99.90;;;;;;4902706;29;20414;-84
2022/03/26 05:54:58;;;;;;;110.97;44.58;;;2.00;99.90;;;;;;4902430;29;20100;-85
2022/03/26 05:57:24;;;;;;;118.70;45.38;;;2.00;99.90;;;;;;4886567;29;20052;-85
2022/03/26 05:59:50;;;;;;;108.45;43.05;;;2.00;99.90;;;;;;4902292;29;20047;-84
2022/03/26 06:02:16;;;;;;;111.15;42.80;;;2.00;99.90;;;;;;4918836;29;20111;-85
2022/03/26 06:04:43;;;;;;;116.32;45.03;;;2.00;99.90;;;;;;4902400;29;20490;-84
2022/03/26 06:07:10;;;;;;;115.05;46.58;;;2.10;99.90;;;;;;4886405;29;20579;-84
2022/03/26 06:09:36;;;;;;;129.13;48.65;;;2.10;99.90;;;;;;4918888;29;20048;-84
2022/03/26 06:12:03;;;;;;;105.85;44.60;;;2.20;99.90;;;;;;4886710;29;20052;-84
2022/03/26 06:14:29;;;;;;;120.80;47.92;;;2.30;99.90;;;;;;4901980;29;20056;-85
2022/03/26 06:16:55;;;;;;;119.80;47.47;;;2.30;99.90;;;;;;4901737;29;20067;-84
2022/03/26 06:19:20;;;;;;;119.32;48.17;;;2.50;99.90;;;;;;4902168;29;20048;-84
2022/03/26 06:21:46;;;;;;;114.22;48.35;;;2.60;99.90;;;;;;4918487;29;20107;-84
2022/03/26 06:24:13;;;;;;;126.40;49.03;;;2.70;99.90;;;;;;4901748;29;20083;-85
2022/03/26 06:26:39;;;;;;;117.70;49.38;;;2.80;99.90;;;;;;4901704;29;20056;-84
2022/03/26 06:29:05;;;;;;;121.97;49.10;;;2.90;99.90;;;;;;4918569;29;20056;-84
2022/03/26 06:31:31;;;;;;;117.35;48.78;;;3.00;99.90;;;;;;4901855;29;20135;-84
2022/03/26 06:33:58;;;;;;;125.82;51.08;;;3.10;99.90;;;;;;4901468;29;20048;-85
2022/03/26 06:36:25;;;;;;;133.65;54.17;;;3.20;99.90;;;;;;4885969;29;20081;-84
2022/03/26 06:38:51;;;;;;;131.73;53.30;;;3.30;99.90;;;;;;4900672;29;20048;-85
2022/03/26 06:41:17;;;;;;;125.55;52.80;;;3.40;99.90;;;;;;4881640;29;20084;-86
2022/03/26 06:43:44;;;;;;;140.38;58.05;;;3.50;99.90;;;;;;4882106;29;20052;-85
2022/03/26 06:46:10;;;;;;;147.48;59.47;;;3.70;99.90;;;;;;4899085;29;20040;-85
2022/03/26 06:48:36;;;;;;;136.05;56.75;;;3.80;99.90;;;;;;4882032;29;20068;-85
2022/03/26 06:51:03;;;;;;;129.05;54.85;;;4.00;99.90;;;;;;4867216;29;20057;-85
2022/03/26 06:53:30;;;;;;;135.05;59.58;;;4.10;99.90;;;;;;4867524;29;20502;-85
2022/03/26 06:55:55;;;;;;;136.60;58.08;;;4.40;99.90;;;;;;4882646;29;20052;-84
2022/03/26 06:58:22;;;;;;;148.55;58.78;;;4.30;99.90;;;;;;4881972;29;20049;-84
2022/03/26 07:00:48;;;;;;;137.13;59.13;;;4.50;99.90;;;;;;4882274;29;20048;-84
2022/03/26 07:03:15;;;;;;;141.38;58.47;;;4.60;99.90;;;;;;4898765;29;20396;-85
2022/03/26 07:05:40;;;;;;;133.75;58.75;;;4.70;99.90;;;;;;4882599;29;20511;-84
2022/03/26 07:08:06;;;;;;;146.48;60.70;;;4.90;99.90;;;;;;4882531;29;20201;-84
2022/03/26 07:10:32;;;;;;;134.70;58.50;;;5.00;99.90;;;;;;4866558;29;20061;-84
2022/03/26 07:12:58;;;;;;;148.60;63.22;;;5.20;99.90;;;;;;4899018;29;20534;-85
2022/03/26 07:15:24;;;;;;;136.13;59.38;;;5.30;99.90;;;;;;4882218;29;20547;-85
2022/03/26 07:17:50;;;;;;;130.45;56.47;;;5.50;99.90;;;;;;4881939;29;20054;-85
2022/03/26 07:20:15;;;;;;;135.13;58.90;;;5.60;99.90;;;;;;4898618;29;20501;-85
2022/03/26 07:22:42;;;;;;;147.50;60.92;;;5.70;99.90;;;;;;4881851;29;20045;-85
2022/03/26 07:25:09;;;;;;;144.82;63.90;;;5.80;99.90;;;;;;4866063;29;20107;-85
2022/03/26 07:27:35;;;;;;;122.05;56.17;;;6.00;99.90;;;;;;4866584;29;20064;-85
2022/03/26 07:30:03;;;;;;;140.30;62.00;;;6.20;99.90;;;;;;4881453;29;20048;-85
2022/03/26 07:32:29;;;;;;;142.80;61.97;;;6.30;99.90;;;;;;4879827;29;20092;-85
2022/03/26 07:34:55;;;;;;;148.63;64.22;;;6.50;99.90;;;;;;4863279;29;20526;-84
2022/03/26 07:37:21;;;;;;;133.35;58.70;;;6.90;99.90;;;;;;4879884;29;20053;-84
2022/03/26 07:39:46;;;;;;;141.73;62.25;;;7.00;99.90;;;;;;4879597;29;20491;-85
2022/03/26 07:42:12;;;;;;;142.70;62.78;;;7.20;99.90;;;;;;4878621;29;20053;-85
2022/03/26 07:44:38;;;;;;;140.15;63.55;;;7.60;99.90;;;;;;4847794;29;20053;-85
2022/03/26 07:47:04;;;;;;;134.32;63.08;;;7.70;99.90;;;;;;4863198;29;20089;-85
2022/03/26 07:49:30;;;;;;;136.70;63.13;;;7.80;99.90;;;;;;4862645;29;20073;-85
2022/03/26 07:51:56;;;;;;;135.95;58.95;;;7.90;99.90;;;;;;4879545;29;20513;-86
2022/03/26 07:54:21;;;;;;;126.70;55.45;;;8.10;99.90;;;;;;4863003;29;20053;-85
2022/03/26 07:56:47;;;;;;;128.65;57.03;;;8.30;99.90;;;;;;4879337;29;20136;-85
2022/03/26 07:59:13;;;;;;;118.30;55.42;;;8.50;99.90;;;;;;4878766;29;20051;-85
2022/03/26 08:01:38;;;;;;;119.10;54.97;;;8.70;99.90;;;;;;4897824;29;20478;-85
2022/03/26 08:04:04;;;;;;;115.53;50.72;;;8.90;99.90;;;;;;4880909;29;20407;-85
2022/03/26 08:06:30;;;;;;;115.50;53.15;;;9.10;99.90;;;;;;4881100;29;20044;-85
2022/03/26 08:08:55;;;;;;;109.43;52.78;;;9.30;99.90;;;;;;4897565;29;20131;-85
2022/03/26 08:11:21;;;;;;;106.18;51.22;;;9.50;99.90;;;;;;4897181;29;20615;-86
2022/03/26 08:13:47;;;;;;;100.82;48.00;;;9.70;99.90;;;;;;4881220;29;20127;-85
2022/03/26 08:16:12;;;;;;;96.68;47.72;;;9.90;99.90;;;;;;4880904;29;20522;-85
2022/03/26 08:18:38;;;;;;;99.97;48.25;;;10.10;99.90;;;;;;4865495;29;20518;-85
2022/03/26 08:21:05;;;;;;;89.13;43.85;;;10.30;99.90;;;;;;4880397;29;20143;-85
2022/03/26 08:23:30;;;;;;;93.75;44.40;;;10.60;99.90;;;;;;4896716;29;20064;-85
2022/03/26 08:28:41;;;;;;;80.25;40.08;;;11.00;99.90;;;;;;4880678;29;20096;-86
2022/03/26 08:31:10;;;;;;;79.57;39.30;;;11.30;99.90;;;;;;4864971;29;20061;-85
2022/03/26 08:33:37;;;;;;;74.45;34.65;;;11.40;99.90;;;;;;4864039;29;20056;-86
2022/03/26 08:36:03;;;;;;;59.00;31.50;;;11.70;99.90;;;;;;4897509;29;20103;-85
2022/03/26 08:38:28;;;;;;;73.40;34.28;;;11.80;99.90;;;;;;4865455;29;20049;-85
2022/03/26 08:40:54;;;;;;;66.70;32.63;;;12.00;99.90;;;;;;4880657;29;20059;-84
2022/03/26 08:43:20;;;;;;;71.55;33.17;;;12.10;99.90;;;;;;4880747;29;20502;-84
2022/03/26 08:45:46;;;;;;;65.15;32.72;;;12.20;99.90;;;;;;4880739;29;20518;-84
2022/03/26 08:48:11;;;;;;;67.35;33.28;;;12.30;99.90;;;;;;4864446;29;20076;-84
2022/03/26 08:50:37;;;;;;;67.30;32.70;;;12.50;99.90;;;;;;4880876;29;20057;-84
2022/03/26 08:53:03;;;;;;;72.00;33.45;;;12.70;99.90;;;;;;4897206;29;20063;-86
2022/03/26 08:55:29;;;;;;;68.32;35.30;;;12.80;99.90;;;;;;4864839;29;20096;-85
2022/03/26 08:57:57;;;;;;;67.68;33.90;;;12.90;99.90;;;;;;4864453;29;20144;-85
2022/03/26 09:00:23;;;;;;;68.47;34.35;;;13.20;99.90;;;;;;4895764;29;20049;-85
2022/03/26 09:02:48;;;;;;;70.60;33.55;;;13.60;99.90;;;;;;4880583;29;20061;-85
2022/03/26 09:05:14;;;;;;;63.25;32.80;;;14.70;99.80;;;;;;4864805;29;20059;-85
2022/03/26 09:07:40;;;;;;;65.95;32.70;;;16.00;93.20;;;;;;4880361;29;20052;-85
2022/03/26 09:10:06;;;;;;;65.93;32.90;;;17.30;79.20;;;;;;4897119;29;20479;-85
2022/03/26 09:12:32;;;;;;;59.92;31.92;;;18.30;71.50;;;;;;4880608;29;20059;-85
2022/03/26 09:14:59;;;;;;;64.00;34.13;;;19.20;65.20;;;;;;4880506;29;20056;-85
2022/03/26 09:17:25;;;;;;;61.63;32.58;;;19.70;60.40;;;;;;4896994;29;20060;-85
2022/03/26 09:19:51;;;;;;;64.57;33.70;;;20.00;57.30;;;;;;4864379;29;20503;-86
2022/03/26 09:22:17;;;;;;;59.92;33.03;;;20.20;55.80;;;;;;4883127;29;20051;-86
2022/03/26 09:24:42;;;;;;;59.05;32.92;;;20.50;54.30;;;;;;4883784;29;20451;-86
2022/03/26 09:27:09;;;;;;;59.75;34.15;;;20.60;53.00;;;;;;4900561;29;20052;-85
2022/03/26 09:29:35;;;;;;;56.40;33.17;;;20.90;51.90;;;;;;4883983;29;20168;-86
2022/03/26 09:32:01;;;;;;;57.20;30.40;;;21.40;50.10;;;;;;4883826;29;20075;-86
2022/03/26 09:34:27;;;;;;;50.72;28.27;;;21.70;48.90;;;;;;4867734;29;20052;-86
2022/03/26 09:36:53;;;;;;;50.83;28.08;;;21.90;47.50;;;;;;4900546;29;20048;-86
2022/03/26 09:39:19;;;;;;;48.47;27.13;;;22.00;47.40;;;;;;4900565;29;20479;-86
2022/03/26 09:41:47;;;;;;;48.10;26.95;;;22.30;47.00;;;;;;4883540;29;20052;-85
2022/03/26 09:44:12;;;;;;;47.45;27.23;;;22.50;46.40;;;;;;4883900;29;20088;-86
2022/03/26 09:46:38;;;;;;;42.20;25.17;;;22.90;45.80;;;;;;4883664;29;20570;-86
2022/03/26 09:49:04;;;;;;;53.53;27.25;;;23.40;46.30;;;;;;4868041;29;20059;-86
2022/03/26 09:51:31;;;;;;;50.25;26.83;;;23.80;44.50;;;;;;4883705;29;20055;-86
2022/03/26 09:53:57;;;;;;;45.40;24.70;;;24.40;44.10;;;;;;4883778;29;20472;-86
2022/03/26 09:56:24;;;;;;;46.17;22.90;;;24.90;43.10;;;;;;4883480;29;20048;-87
2022/03/26 09:58:53;;;;;;;39.50;23.75;;;25.40;41.50;;;;;;4883486;29;20469;-86
2022/03/26 10:01:20;;;;;;;40.53;23.38;;;25.70;40.20;;;;;;4883305;29;20486;-86
2022/03/26 10:04:13;;;;;;;38.15;21.60;;;25.80;39.80;;;;;;4899658;29;20052;-87
2022/03/26 10:06:51;;;;;;;40.70;21.33;;;25.70;39.10;;;;;;4880955;29;20108;-86
2022/03/26 10:09:35;;;;;;;30.90;18.85;;;25.60;39.70;;;;;;4883112;29;20471;-86
2022/03/26 10:12:22;;;;;;;32.10;17.13;;;25.60;39.30;;;;;;4867364;29;20079;-87
2022/03/26 10:14:52;;;;;;;33.53;18.17;;;25.70;39.20;;;;;;4883329;29;20125;-86
2022/03/26 10:17:27;;;;;;;32.90;17.98;;;25.70;39.80;;;;;;4883294;29;20052;-86
2022/03/26 10:20:00;;;;;;;31.83;18.88;;;25.50;39.20;;;;;;4867534;29;20384;-86
2022/03/26 10:22:30;;;;;;;29.50;19.48;;;25.10;39.80;;;;;;4867643;29;20376;-87
2022/03/26 10:24:57;;;;;;;;;;;24.90;40.10;;;;;;4899855;29;20060;-85
2022/03/26 10:27:24;;;;;;;27.33;16.58;;;25.10;39.80;;;;;;4882867;29;19923;-87
2022/03/26 10:29:50;;;;;;;26.77;16.63;;;25.20;41.00;;;;;;4867027;29;20222;-86
2022/03/26 10:35:28;;;;;;;22.95;16.90;;;25.40;41.50;;;;;;4808363;29;20058;-87
2022/03/26 10:37:59;;;;;;;26.63;16.88;;;25.80;41.90;;;;;;4808464;29;20179;-87
2022/03/26 10:40:30;;;;;;;28.08;16.83;;;26.30;41.80;;;;;;4823111;29;20067;-87
2022/03/26 10:43:02;;;;;;;25.20;18.13;;;26.80;41.80;;;;;;4793244;29;20183;-87
2022/03/26 10:45:29;;;;;;;26.63;17.63;;;27.10;41.10;;;;;;4808020;29;20062;-86
2022/03/26 10:47:57;;;;;;;20.08;14.23;;;27.20;40.70;;;;;;4807131;29;20062;-87
2022/03/26 10:50:24;;;;;;;21.48;15.77;;;27.30;40.80;;;;;;4823076;29;20437;-87
2022/03/26 10:52:56;;;;;;;20.15;15.75;;;27.60;40.90;;;;;;4823155;29;20069;-86
2022/03/26 10:55:23;;;;;;;22.73;15.75;;;27.80;40.80;;;;;;4808161;29;20069;-87
2022/03/26 10:57:49;;;;;;;25.70;17.67;;;27.90;40.00;;;;;;4807849;29;20050;-87
2022/03/26 11:00:18;;;;;;;22.05;17.60;;;27.90;39.70;;;;;;4807758;29;20061;-87
2022/03/26 11:02:44;;;;;;;27.13;19.88;;;27.50;40.10;;;;;;4807904;29;20058;-86
2022/03/26 11:05:11;;;;;;;25.02;17.98;;;27.40;40.90;;;;;;4813808;29;20055;-87
2022/03/26 11:07:40;;;;;;;26.70;18.85;;;27.60;41.00;;;;;;4898834;29;20388;-87
2022/03/26 11:10:12;;;;;;;29.50;18.08;;;28.00;40.50;;;;;;4866791;29;20045;-87
2022/03/26 11:12:44;;;;;;;27.85;20.23;;;28.20;39.70;;;;;;4882298;29;20053;-87
2022/03/26 11:15:17;;;;;;;31.30;22.02;;;28.20;39.30;;;;;;4881917;29;20056;-86
2022/03/26 11:17:51;;;;;;;28.10;20.00;;;28.20;39.80;;;;;;4866847;29;20057;-86
2022/03/26 11:20:33;;;;;;;26.90;18.55;;;28.40;40.30;;;;;;4882074;29;20064;-86
2022/03/26 11:23:13;;;;;;;22.20;18.33;;;28.60;39.20;;;;;;4898815;29;20044;-86
2022/03/26 11:25:52;;;;;;;29.58;19.95;;;28.60;39.20;;;;;;4881727;29;20059;-86
2022/03/26 11:28:30;;;;;;;26.15;19.50;;;28.70;39.80;;;;;;4898703;29;20052;-86
2022/03/26 11:31:11;;;;;;;28.70;19.13;;;28.70;39.10;;;;;;4881783;29;20353;-86
2022/03/26 11:33:37;;;;;;;29.88;17.92;;;28.70;39.30;;;;;;4881737;29;20411;-86
2022/03/26 11:36:08;;;;;;;20.65;15.55;;;28.70;39.60;;;;;;4897383;29;20084;-86
2022/03/26 11:38:34;;;;;;;22.52;16.33;;;28.70;39.40;;;;;;4881714;29;20060;-88
2022/03/26 11:41:09;;;;;;;22.35;16.75;;;28.70;38.60;;;;;;4881555;29;20047;-86
2022/03/26 11:43:44;;;;;;;18.95;15.43;;;28.40;39.00;;;;;;4881395;29;20047;-87
2022/03/26 11:52:20;;;;;;;18.35;13.60;;;27.80;38.70;;;;;;4881883;29;20152;-87
2022/03/26 11:54:47;;;;;;;22.33;14.35;;;27.50;39.40;;;;;;4881479;29;20104;-87
2022/03/26 11:57:23;;;;;;;22.00;15.80;;;27.50;40.20;;;;;;4865578;29;20131;-88
2022/03/26 11:59:52;;;;;;;16.75;12.68;;;28.10;39.70;;;;;;4865946;29;20056;-87
2022/03/26 12:02:28;;;;;;;20.45;13.52;;;28.50;39.50;;;;;;4881443;29;20135;-87
2022/03/26 12:08:18;;;;;;;22.35;14.63;;;29.00;38.80;;;;;;4881168;29;20059;-88
2022/03/26 12:10:45;;;;;;;15.90;12.13;;;29.20;38.40;;;;;;4865689;29;20059;-87
2022/03/26 12:13:22;;;;;;;15.38;12.23;;;29.30;37.50;;;;;;4881074;29;20143;-87
2022/03/26 12:15:59;;;;;;;15.10;11.20;;;29.00;37.30;;;;;;4881113;29;20227;-89
2022/03/26 12:18:38;;;;;;;15.63;11.23;;;28.70;37.70;;;;;;4880822;29;20067;-88
2022/03/26 12:21:20;;;;;;;13.07;10.75;;;28.60;38.50;;;;;;4865184;29;20083;-87
2022/03/26 12:23:45;;;;;;;14.93;11.25;;;28.80;39.00;;;;;;4880897;29;20084;-86
2022/03/26 12:26:12;;;;;;;15.95;11.43;;;29.10;38.50;;;;;;4880726;29;20099;-87
2022/03/26 12:28:42;;;;;;;15.00;11.35;;;29.40;38.10;;;;;;4881393;29;20491;-86
2022/03/26 12:31:13;;;;;;;13.82;11.32;;;29.70;38.40;;;;;;4865883;29;20112;-86
2022/03/26 12:33:50;;;;;;;15.82;12.38;;;29.90;37.50;;;;;;4881261;29;20056;-86
2022/03/26 12:36:18;;;;;;;14.77;9.73;;;29.80;36.90;;;;;;4880829;29;20052;-87
2022/03/26 12:38:52;;;;;;;11.82;9.35;;;29.70;36.80;;;;;;4880828;29;20135;-87
2022/03/26 12:41:18;;;;;;;11.10;8.80;;;29.40;36.50;;;;;;4880322;29;20041;-87
2022/03/26 12:43:54;;;;;;;14.27;9.55;;;28.90;37.20;;;;;;4880647;29;20059;-86
2022/03/26 12:46:20;;;;;;;13.07;9.30;;;29.10;37.80;;;;;;4864867;29;20057;-87